createdAt,value
2018-03-21T00:00:14.735Z,1.36
2018-03-21T00:01:14.724Z,1.39
2018-03-21T00:02:14.708Z,1.47
2018-03-21T00:03:14.696Z,1.43
2018-03-21T00:04:14.684Z,1.43
2018-03-21T00:05:14.674Z,1.39
2018-03-21T00:06:14.661Z,1.42
2018-03-21T00:07:14.652Z,1.35
2018-03-21T00:08:14.637Z,1.39
2018-03-21T00:09:14.626Z,1.44
2018-03-21T00:10:14.615Z,1.34
2018-03-21T00:11:14.600Z,1.38
2018-03-21T00:12:14.593Z,1.49
2018-03-21T00:13:14.582Z,1.47
2018-03-21T00:14:14.569Z,1.49
2018-03-21T00:15:14.555Z,1.52
2018-03-21T00:16:14.542Z,1.39
2018-03-21T00:17:14.530Z,1.31
2018-03-21T00:18:14.519Z,1.32
2018-03-21T00:19:14.506Z,1.29
2018-03-21T00:20:14.499Z,1.20
2018-03-21T00:21:14.487Z,1.20
2018-03-21T00:22:14.471Z,1.17
2018-03-21T00:23:14.457Z,1.29
2018-03-21T00:24:14.450Z,1.21
2018-03-21T00:25:14.438Z,1.20
2018-03-21T00:26:14.422Z,1.20
2018-03-21T00:27:14.411Z,1.18
2018-03-21T00:28:14.399Z,1.11
2018-03-21T00:29:14.388Z,1.10
2018-03-21T00:30:14.375Z,1.14
2018-03-21T00:31:14.362Z,1.14
2018-03-21T00:32:14.350Z,1.02
2018-03-21T00:33:14.339Z,1.13
2018-03-21T00:34:14.331Z,1.07
2018-03-21T00:35:14.318Z,1.13
2018-03-21T00:36:14.302Z,0.93
2018-03-21T00:37:14.290Z,0.80
2018-03-21T00:38:14.283Z,0.84
2018-03-21T00:39:14.270Z,0.75
2018-03-21T00:40:14.255Z,0.70
2018-03-21T00:41:14.242Z,0.75
2018-03-21T00:42:14.230Z,0.72
2018-03-21T00:43:14.217Z,0.60
2018-03-21T00:44:14.205Z,0.63
2018-03-21T00:45:14.193Z,0.68
2018-03-21T00:46:14.182Z,0.63
2018-03-21T00:47:14.170Z,0.64
2018-03-21T00:48:14.158Z,0.71
2018-03-21T00:49:14.146Z,0.72
2018-03-21T00:50:14.133Z,0.71
2018-03-21T00:51:14.121Z,0.62
2018-03-21T00:52:14.113Z,0.62
2018-03-21T00:53:14.101Z,0.67
2018-03-21T00:54:14.085Z,0.51
2018-03-21T00:55:14.070Z,0.60
2018-03-21T00:56:14.063Z,0.51
2018-03-21T00:57:14.050Z,0.38
2018-03-21T00:58:14.047Z,0.41
2018-03-21T00:59:14.022Z,0.40
2018-03-21T01:00:14.009Z,0.48
2018-03-21T01:01:13.998Z,0.40
2018-03-21T01:02:13.986Z,0.51
2018-03-21T01:03:13.973Z,0.41
2018-03-21T01:04:13.960Z,0.45
2018-03-21T01:05:13.951Z,0.48
2018-03-21T01:06:13.940Z,0.49
2018-03-21T01:07:13.927Z,0.53
2018-03-21T01:08:13.911Z,0.37
2018-03-21T01:09:13.904Z,0.34
2018-03-21T01:10:13.890Z,0.23
2018-03-21T01:11:13.878Z,0.26
2018-03-21T01:12:13.861Z,0.33
2018-03-21T01:13:13.849Z,0.43
2018-03-21T01:14:13.837Z,0.37
2018-03-21T01:15:13.824Z,0.45
2018-03-21T01:16:13.812Z,0.37
2018-03-21T01:17:13.800Z,0.43
2018-03-21T01:18:13.792Z,0.37
2018-03-21T01:19:13.780Z,0.43
2018-03-21T01:20:13.762Z,0.31
2018-03-21T01:21:13.749Z,0.28
2018-03-21T01:22:13.739Z,0.22
2018-03-21T01:23:13.726Z,0.16
2018-03-21T01:24:13.713Z,0.19
2018-03-21T01:25:13.701Z,0.20
2018-03-21T01:26:13.688Z,0.12
2018-03-21T01:27:13.676Z,0.12
2018-03-21T01:28:13.664Z,0.15
2018-03-21T01:29:13.650Z,0.16
2018-03-21T01:30:13.641Z,0.10
2018-03-21T01:31:13.629Z,0.07
2018-03-21T01:32:13.613Z,0.05
2018-03-21T01:33:13.600Z,0.12
2018-03-21T01:34:13.592Z,0.08
2018-03-21T01:35:13.577Z,0.01
2018-03-21T01:36:13.566Z,0.13
2018-03-21T01:37:13.554Z,-0.03
2018-03-21T01:38:13.538Z,0.02
2018-03-21T01:39:13.528Z,0.08
2018-03-21T01:40:13.512Z,0.13
2018-03-21T01:41:13.500Z,0.17
2018-03-21T01:42:13.487Z,0.13
2018-03-21T01:43:13.473Z,0.05
2018-03-21T01:44:13.462Z,0.02
2018-03-21T01:45:13.449Z,-0.01
2018-03-21T01:46:13.435Z,-0.05
2018-03-21T01:47:13.423Z,-0.05
2018-03-21T01:48:13.416Z,-0.09
2018-03-21T01:49:13.402Z,-0.21
2018-03-21T01:50:13.389Z,-0.19
2018-03-21T01:51:13.376Z,-0.05
2018-03-21T01:52:13.360Z,-0.09
2018-03-21T01:53:13.346Z,-0.09
2018-03-21T01:54:13.336Z,-0.08
2018-03-21T01:55:13.323Z,-0.19
2018-03-21T01:56:13.310Z,-0.26
2018-03-21T01:57:13.296Z,-0.19
2018-03-21T01:58:13.286Z,-0.24
2018-03-21T01:59:13.270Z,-0.27
2018-03-21T02:00:13.258Z,-0.20
2018-03-21T02:01:13.245Z,-0.12
2018-03-21T02:02:13.236Z,-0.14
2018-03-21T02:03:13.224Z,-0.17
2018-03-21T02:04:13.208Z,-0.17
2018-03-21T02:05:13.194Z,-0.12
2018-03-21T02:06:13.183Z,-0.16
2018-03-21T02:07:13.168Z,-0.27
2018-03-21T02:08:13.160Z,-0.27
2018-03-21T02:09:13.147Z,-0.23
2018-03-21T02:10:13.131Z,-0.27
2018-03-21T02:11:13.117Z,-0.34
2018-03-21T02:12:13.105Z,-0.21
2018-03-21T02:13:13.092Z,-0.26
2018-03-21T02:14:13.080Z,-0.32
2018-03-21T02:15:13.068Z,-0.34
2018-03-21T02:16:13.053Z,-0.31
2018-03-21T02:17:13.046Z,-0.32
2018-03-21T02:18:13.027Z,-0.32
2018-03-21T02:19:13.014Z,-0.35
2018-03-21T02:20:13.009Z,-0.39
2018-03-21T02:21:13.041Z,-0.35
2018-03-21T02:22:12.980Z,-0.35
2018-03-21T02:23:12.965Z,-0.35
2018-03-21T02:24:12.949Z,-0.38
2018-03-21T02:25:12.937Z,-0.32
2018-03-21T02:26:12.926Z,-0.41
2018-03-21T02:27:12.910Z,-0.30
2018-03-21T02:28:12.897Z,-0.31
2018-03-21T02:29:12.885Z,-0.30
2018-03-21T02:30:12.873Z,-0.26
2018-03-21T02:31:12.858Z,-0.30
2018-03-21T02:32:12.845Z,-0.16
2018-03-21T02:33:12.832Z,-0.16
2018-03-21T02:34:12.824Z,-0.09
2018-03-21T02:35:12.810Z,-0.21
2018-03-21T02:36:12.794Z,-0.08
2018-03-21T02:37:12.781Z,-0.03
2018-03-21T02:38:12.769Z,-0.14
2018-03-21T02:39:12.756Z,-0.16
2018-03-21T02:40:12.744Z,-0.17
2018-03-21T02:41:12.732Z,-0.23
2018-03-21T02:42:12.716Z,-0.26
2018-03-21T02:43:12.702Z,-0.34
2018-03-21T02:44:12.690Z,-0.34
2018-03-21T02:45:12.676Z,-0.32
2018-03-21T02:46:12.665Z,-0.37
2018-03-21T02:47:12.654Z,-0.39
2018-03-21T02:48:12.637Z,-0.52
2018-03-21T02:49:12.625Z,-0.56
2018-03-21T02:50:12.611Z,-0.58
2018-03-21T02:51:12.597Z,-0.59
2018-03-21T02:52:12.588Z,-0.70
2018-03-21T02:53:12.578Z,-0.80
2018-03-21T02:54:12.562Z,-0.76
2018-03-21T02:55:12.548Z,-0.83
2018-03-21T02:56:12.531Z,-0.92
2018-03-21T02:57:12.526Z,-0.89
2018-03-21T02:58:12.508Z,-0.90
2018-03-21T02:59:12.492Z,-0.83
2018-03-21T03:00:12.488Z,-0.89
2018-03-21T03:01:12.467Z,-0.89
2018-03-21T03:02:12.452Z,-0.89
2018-03-21T03:03:12.441Z,-0.81
2018-03-21T03:04:12.427Z,-0.85
2018-03-21T03:05:12.413Z,-0.89
2018-03-21T03:06:12.405Z,-0.85
2018-03-21T03:07:12.390Z,-0.93
2018-03-21T03:08:12.376Z,-0.90
2018-03-21T03:09:12.362Z,-0.96
2018-03-21T03:10:12.350Z,-0.96
2018-03-21T03:11:12.333Z,-1.02
2018-03-21T03:12:12.324Z,-1.00
2018-03-21T03:13:12.311Z,-1.07
2018-03-21T03:14:12.295Z,-1.10
2018-03-21T03:15:12.280Z,-1.11
2018-03-21T03:16:12.267Z,-0.99
2018-03-21T03:17:12.254Z,-0.90
2018-03-21T03:18:12.242Z,-0.86
2018-03-21T03:19:12.228Z,-0.93
2018-03-21T03:20:12.214Z,-0.93
2018-03-21T03:21:12.202Z,-1.02
2018-03-21T03:22:12.189Z,-0.90
2018-03-21T03:23:12.175Z,-1.00
2018-03-21T03:24:12.164Z,-1.05
2018-03-21T03:25:12.151Z,-0.85
2018-03-21T03:26:12.136Z,-0.96
2018-03-21T03:27:12.121Z,-0.85
2018-03-21T03:28:12.107Z,-0.92
2018-03-21T03:29:12.094Z,-0.92
2018-03-21T03:30:12.082Z,-1.07
2018-03-21T03:31:12.068Z,-1.03
2018-03-21T03:32:12.058Z,-1.03
2018-03-21T03:33:12.096Z,-0.99
2018-03-21T03:34:12.027Z,-0.93
2018-03-21T03:35:12.013Z,-0.83
2018-03-21T03:36:12.006Z,-0.85
2018-03-21T03:37:11.990Z,-0.89
2018-03-21T03:38:11.975Z,-0.92
2018-03-21T03:39:11.960Z,-0.89
2018-03-21T03:40:11.947Z,-0.92
2018-03-21T03:41:11.938Z,-0.85
2018-03-21T03:42:11.921Z,-0.83
2018-03-21T03:43:11.906Z,-0.89
2018-03-21T03:44:11.893Z,-0.90
2018-03-21T03:45:11.880Z,-1.03
2018-03-21T03:46:11.871Z,-1.08
2018-03-21T03:47:11.856Z,-1.08
2018-03-21T03:48:11.844Z,-1.26
2018-03-21T03:49:11.826Z,-1.23
2018-03-21T03:50:11.816Z,-1.18
2018-03-21T03:51:11.801Z,-1.18
2018-03-21T03:52:11.785Z,-1.11
2018-03-21T03:53:11.771Z,-1.21
2018-03-21T03:54:11.765Z,-1.32
2018-03-21T03:55:11.744Z,-1.20
2018-03-21T03:56:11.731Z,-1.23
2018-03-21T03:57:11.718Z,-1.23
2018-03-21T03:58:11.704Z,-1.18
2018-03-21T03:59:11.690Z,-1.10
2018-03-21T04:00:11.677Z,-0.99
2018-03-21T04:01:11.663Z,-1.11
2018-03-21T04:02:11.650Z,-1.00
2018-03-21T04:03:11.636Z,-1.08
2018-03-21T04:04:11.626Z,-1.03
2018-03-21T04:05:11.614Z,-1.05
2018-03-21T04:06:11.599Z,-1.02
2018-03-21T04:07:11.581Z,-1.05
2018-03-21T04:08:11.572Z,-0.99
2018-03-21T04:09:11.564Z,-1.08
2018-03-21T04:10:11.542Z,-1.03
2018-03-21T04:11:11.529Z,-0.95
2018-03-21T04:12:11.515Z,-0.99
2018-03-21T04:13:11.501Z,-1.07
2018-03-21T04:14:11.489Z,-1.11
2018-03-21T04:15:11.473Z,-1.13
2018-03-21T04:16:11.459Z,-1.08
2018-03-21T04:17:11.447Z,-1.13
2018-03-21T04:18:11.437Z,-1.20
2018-03-21T04:19:11.422Z,-1.28
2018-03-21T04:20:11.405Z,-1.21
2018-03-21T04:21:11.392Z,-1.29
2018-03-21T04:22:11.390Z,-1.26
2018-03-21T04:23:11.376Z,-1.25
2018-03-21T04:24:11.350Z,-1.20
2018-03-21T04:25:11.337Z,-1.21
2018-03-21T04:26:11.324Z,-1.28
2018-03-21T04:27:11.309Z,-1.21
2018-03-21T04:28:11.297Z,-1.20
2018-03-21T04:29:11.283Z,-1.31
2018-03-21T04:30:11.275Z,-1.35
2018-03-21T04:31:11.263Z,-1.41
2018-03-21T04:32:11.241Z,-1.38
2018-03-21T04:33:11.227Z,-1.47
2018-03-21T04:34:11.214Z,-1.53
2018-03-21T04:35:11.200Z,-1.65
2018-03-21T04:36:11.186Z,-1.54
2018-03-21T04:37:11.173Z,-1.59
2018-03-21T04:38:11.159Z,-1.65
2018-03-21T04:39:11.183Z,-1.56
2018-03-21T04:40:11.132Z,-1.54
2018-03-21T04:41:11.119Z,-1.62
2018-03-21T04:42:11.108Z,-1.61
2018-03-21T04:43:11.095Z,-1.56
2018-03-21T04:44:11.077Z,-1.61
2018-03-21T04:45:11.063Z,-1.54
2018-03-21T04:46:11.051Z,-1.50
2018-03-21T04:47:11.035Z,-1.59
2018-03-21T04:48:11.025Z,-1.54
2018-03-21T04:49:11.017Z,-1.65
2018-03-21T04:50:10.996Z,-1.62
2018-03-21T04:51:11.030Z,-1.64
2018-03-21T04:52:10.967Z,-1.56
2018-03-21T04:53:10.956Z,-1.57
2018-03-21T04:54:10.940Z,-1.62
2018-03-21T04:55:10.925Z,-1.56
2018-03-21T04:56:10.923Z,-1.61
2018-03-21T04:57:10.897Z,-1.65
2018-03-21T04:58:10.885Z,-1.67
2018-03-21T04:59:10.869Z,-1.67
2018-03-21T05:00:10.861Z,-1.77
2018-03-21T05:01:10.846Z,-1.86
2018-03-21T05:02:10.833Z,-1.85
2018-03-21T05:03:10.819Z,-1.72
2018-03-21T05:04:10.802Z,-1.74
2018-03-21T05:05:10.788Z,-1.85
2018-03-21T05:06:10.774Z,-1.85
2018-03-21T05:07:10.760Z,-1.89
2018-03-21T05:08:10.748Z,-1.78
2018-03-21T05:09:10.733Z,-1.89
2018-03-21T05:10:10.719Z,-1.89
2018-03-21T05:11:10.704Z,-1.98
2018-03-21T05:12:10.691Z,-1.86
2018-03-21T05:13:10.676Z,-1.86
2018-03-21T05:14:10.666Z,-1.95
2018-03-21T05:15:10.652Z,-1.95
2018-03-21T05:16:10.635Z,-1.86
2018-03-21T05:17:10.621Z,-1.83
2018-03-21T05:18:10.607Z,-1.82
2018-03-21T05:19:10.592Z,-1.82
2018-03-21T05:20:10.584Z,-1.80
2018-03-21T05:21:10.576Z,-1.70
2018-03-21T05:22:10.552Z,-1.72
2018-03-21T05:23:10.537Z,-1.71
2018-03-21T05:24:10.525Z,-1.62
2018-03-21T05:25:10.510Z,-1.61
2018-03-21T05:26:10.496Z,-1.54
2018-03-21T05:27:10.483Z,-1.53
2018-03-21T05:28:10.469Z,-1.46
2018-03-21T05:29:10.455Z,-1.51
2018-03-21T05:30:10.442Z,-1.44
2018-03-21T05:31:10.426Z,-1.32
2018-03-21T05:32:10.417Z,-1.26
2018-03-21T05:33:10.404Z,-1.21
2018-03-21T05:34:10.388Z,-1.14
2018-03-21T05:35:10.373Z,-1.05
2018-03-21T05:36:10.359Z,-0.97
2018-03-21T05:37:10.347Z,-0.96
2018-03-21T05:38:10.332Z,-0.90
2018-03-21T05:39:10.318Z,-0.81
2018-03-21T05:40:10.308Z,-0.78
2018-03-21T05:41:10.296Z,-0.63
2018-03-21T05:42:10.278Z,-0.58
2018-03-21T05:43:10.264Z,-0.45
2018-03-21T05:44:10.255Z,-0.47
2018-03-21T05:45:10.242Z,-0.39
2018-03-21T05:46:10.225Z,-0.35
2018-03-21T05:47:10.211Z,-0.37
2018-03-21T05:48:10.261Z,-0.37
2018-03-21T05:49:10.185Z,-0.23
2018-03-21T05:50:10.173Z,-0.24
2018-03-21T05:51:10.159Z,-0.16
2018-03-21T05:52:10.147Z,-0.21
2018-03-21T05:53:10.133Z,-0.14
2018-03-21T05:54:10.123Z,-0.03
2018-03-21T05:55:10.109Z,-0.05
2018-03-21T05:56:10.092Z,-0.08
2018-03-21T05:57:10.080Z,-0.01
2018-03-21T05:58:10.072Z,0.08
2018-03-21T05:59:10.058Z,0.05
2018-03-21T06:00:10.040Z,0.10
2018-03-21T06:01:10.029Z,0.17
2018-03-21T06:02:10.016Z,0.10
2018-03-21T06:03:10.003Z,0.10
2018-03-21T06:04:09.993Z,0.12
2018-03-21T06:05:09.978Z,0.16
2018-03-21T06:06:09.965Z,0.17
2018-03-21T06:07:09.950Z,0.23
2018-03-21T06:08:09.939Z,0.30
2018-03-21T06:09:09.926Z,0.23
2018-03-21T06:10:09.912Z,0.38
2018-03-21T06:11:09.899Z,0.40
2018-03-21T06:12:09.895Z,0.41
2018-03-21T06:13:09.880Z,0.57
2018-03-21T06:14:09.861Z,0.45
2018-03-21T06:15:09.848Z,0.44
2018-03-21T06:16:09.839Z,0.56
2018-03-21T06:17:09.829Z,0.53
2018-03-21T06:18:09.817Z,0.60
2018-03-21T06:19:09.799Z,0.56
2018-03-21T06:20:09.786Z,0.56
2018-03-21T06:21:09.779Z,0.57
2018-03-21T06:22:09.761Z,0.60
2018-03-21T06:23:09.748Z,0.63
2018-03-21T06:24:09.738Z,0.60
2018-03-21T06:25:09.725Z,0.70
2018-03-21T06:26:09.718Z,0.62
2018-03-21T06:27:09.702Z,0.63
2018-03-21T06:28:09.686Z,0.62
2018-03-21T06:29:09.674Z,0.64
2018-03-21T06:30:09.665Z,0.68
2018-03-21T06:31:09.652Z,0.70
2018-03-21T06:32:09.635Z,0.64
2018-03-21T06:33:09.624Z,0.68
2018-03-21T06:34:09.612Z,0.63
2018-03-21T06:35:09.600Z,0.68
2018-03-21T06:36:09.587Z,0.68
2018-03-21T06:37:09.576Z,0.71
2018-03-21T06:38:09.567Z,0.70
2018-03-21T06:39:09.553Z,0.82
2018-03-21T06:40:09.537Z,0.84
2018-03-21T06:41:09.525Z,0.88
2018-03-21T06:42:09.520Z,0.86
2018-03-21T06:43:09.500Z,0.82
2018-03-21T06:44:09.488Z,0.82
2018-03-21T06:45:09.476Z,0.82
2018-03-21T06:46:09.465Z,0.96
2018-03-21T06:47:09.452Z,0.93
2018-03-21T06:48:09.439Z,0.89
2018-03-21T06:49:09.428Z,1.04
2018-03-21T06:50:09.418Z,1.00
2018-03-21T06:51:09.406Z,1.02
2018-03-21T06:52:09.392Z,0.99
2018-03-21T06:53:09.377Z,1.06
2018-03-21T06:54:09.365Z,1.07
2018-03-21T06:55:09.374Z,1.06
2018-03-21T06:56:09.345Z,1.16
2018-03-21T06:57:09.333Z,1.06
2018-03-21T06:58:09.318Z,1.06
2018-03-21T06:59:09.304Z,1.20
2018-03-21T07:00:09.293Z,1.21
2018-03-21T07:01:09.282Z,1.21
2018-03-21T07:02:09.269Z,1.29
2018-03-21T07:03:09.256Z,1.25
2018-03-21T07:04:09.245Z,1.29
2018-03-21T07:05:09.233Z,1.35
2018-03-21T07:06:09.221Z,1.39
2018-03-21T07:07:09.208Z,1.34
2018-03-21T07:08:09.200Z,1.38
2018-03-21T07:09:09.189Z,1.42
2018-03-21T07:10:09.178Z,1.44
2018-03-21T07:11:09.164Z,1.44
2018-03-21T07:12:09.153Z,1.42
2018-03-21T07:13:09.138Z,1.43
2018-03-21T07:14:09.126Z,1.43
2018-03-21T07:15:09.114Z,1.39
2018-03-21T07:16:09.103Z,1.43
2018-03-21T07:17:09.092Z,1.43
2018-03-21T07:18:09.080Z,1.49
2018-03-21T07:19:09.066Z,1.47
2018-03-21T07:20:09.055Z,1.46
2018-03-21T07:21:09.044Z,1.52
2018-03-21T07:22:09.037Z,1.49
2018-03-21T07:23:09.074Z,1.56
2018-03-21T07:24:09.008Z,1.64
2018-03-21T07:25:08.997Z,1.54
2018-03-21T07:26:08.986Z,1.60
2018-03-21T07:27:08.975Z,1.67
2018-03-21T07:28:08.967Z,1.68
2018-03-21T07:29:08.955Z,1.68
2018-03-21T07:30:08.940Z,1.74
2018-03-21T07:31:08.959Z,1.75
2018-03-21T07:32:08.917Z,1.79
2018-03-21T07:33:08.907Z,1.74
2018-03-21T07:34:08.895Z,1.82
2018-03-21T07:35:08.883Z,1.88
2018-03-21T07:36:08.872Z,1.89
2018-03-21T07:37:08.859Z,1.89
2018-03-21T07:38:08.849Z,1.83
2018-03-21T07:39:08.875Z,1.88
2018-03-21T07:40:08.829Z,1.88
2018-03-21T07:41:08.820Z,1.98
2018-03-21T07:42:08.808Z,1.89
2018-03-21T07:43:08.792Z,1.89
2018-03-21T07:44:08.787Z,1.83
2018-03-21T07:45:08.827Z,1.74
2018-03-21T07:46:08.760Z,1.56
2018-03-21T07:47:08.748Z,1.57
2018-03-21T07:48:08.740Z,1.47
2018-03-21T07:49:08.729Z,1.56
2018-03-21T07:50:08.714Z,1.53
2018-03-21T07:51:08.702Z,1.50
2018-03-21T07:52:08.697Z,1.44
2018-03-21T07:53:08.686Z,1.47
2018-03-21T07:54:08.671Z,1.36
2018-03-21T07:55:08.659Z,1.46
2018-03-21T07:56:08.650Z,1.44
2018-03-21T07:57:08.636Z,1.44
2018-03-21T07:58:08.625Z,1.49
2018-03-21T07:59:08.615Z,1.39
2018-03-21T08:00:08.603Z,1.47
2018-03-21T08:01:08.592Z,1.52
2018-03-21T08:02:08.588Z,1.57
2018-03-21T08:03:08.573Z,1.65
2018-03-21T08:04:08.559Z,1.61
2018-03-21T08:05:08.547Z,1.72
2018-03-21T08:06:08.542Z,1.72
2018-03-21T08:07:08.528Z,1.70
2018-03-21T08:08:08.515Z,1.72
2018-03-21T08:09:08.505Z,1.83
2018-03-21T08:10:08.493Z,1.83
2018-03-21T08:11:08.480Z,1.89
2018-03-21T08:12:08.471Z,1.88
2018-03-21T08:13:08.460Z,1.89
2018-03-21T08:14:08.451Z,2.00
2018-03-21T08:15:08.438Z,2.05
2018-03-21T08:16:08.427Z,2.09
2018-03-21T08:17:08.418Z,2.18
2018-03-21T08:18:08.406Z,2.19
2018-03-21T08:19:08.395Z,2.23
2018-03-21T08:20:08.387Z,2.15
2018-03-21T08:21:08.377Z,2.26
2018-03-21T08:22:08.363Z,2.25
2018-03-21T08:23:08.351Z,2.22
2018-03-21T08:24:08.344Z,2.20
2018-03-21T08:25:08.382Z,2.20
2018-03-21T08:26:08.321Z,2.33
2018-03-21T08:27:08.323Z,2.25
2018-03-21T08:28:08.298Z,2.25
2018-03-21T08:29:08.287Z,2.33
2018-03-21T08:30:08.276Z,2.26
2018-03-21T08:31:08.265Z,2.40
2018-03-21T08:32:08.256Z,2.45
2018-03-21T08:33:08.245Z,2.44
2018-03-21T08:34:08.238Z,2.25
2018-03-21T08:35:08.227Z,2.19
2018-03-21T08:36:08.213Z,2.23
2018-03-21T08:37:08.201Z,2.37
2018-03-21T08:38:08.220Z,2.45
2018-03-21T08:39:08.185Z,2.48
2018-03-21T08:40:08.170Z,2.45
2018-03-21T08:41:08.159Z,2.56
2018-03-21T08:42:08.151Z,2.66
2018-03-21T08:43:08.140Z,2.84
2018-03-21T08:44:08.128Z,2.87
2018-03-21T08:45:08.121Z,2.97
2018-03-21T08:46:08.113Z,3.08
2018-03-21T08:47:08.101Z,3.15
2018-03-21T08:48:08.112Z,3.34
2018-03-21T08:49:08.076Z,3.35
2018-03-21T08:50:08.067Z,3.45
2018-03-21T08:51:08.057Z,3.52
2018-03-21T08:52:08.047Z,3.52
2018-03-21T08:53:08.038Z,3.64
2018-03-21T08:54:08.027Z,3.70
2018-03-21T08:55:08.015Z,3.82
2018-03-21T08:56:08.007Z,3.82
2018-03-21T08:57:07.996Z,3.82
2018-03-21T08:58:07.990Z,3.98
2018-03-21T08:59:07.979Z,3.89
2018-03-21T09:00:07.968Z,4.04
2018-03-21T09:01:07.955Z,4.18
2018-03-21T09:02:07.948Z,4.26
2018-03-21T09:03:07.936Z,4.28
2018-03-21T09:04:07.930Z,4.29
2018-03-21T09:05:07.920Z,4.42
2018-03-21T09:06:07.908Z,4.49
2018-03-21T09:07:07.904Z,4.53
2018-03-21T09:08:07.888Z,4.50
2018-03-21T09:09:07.880Z,4.49
2018-03-21T09:10:07.870Z,4.65
2018-03-21T09:11:07.860Z,4.50
2018-03-21T09:12:07.850Z,4.36
2018-03-21T09:13:07.842Z,4.36
2018-03-21T09:14:07.832Z,4.46
2018-03-21T09:15:07.821Z,4.62
2018-03-21T09:16:07.818Z,4.51
2018-03-21T09:17:07.808Z,4.53
2018-03-21T09:18:07.801Z,4.62
2018-03-21T09:19:07.788Z,4.50
2018-03-21T09:20:07.776Z,4.53
2018-03-21T09:21:07.766Z,4.42
2018-03-21T09:22:07.758Z,4.42
2018-03-21T09:23:07.748Z,4.50
2018-03-21T09:24:07.740Z,4.49
2018-03-21T09:25:07.731Z,4.49
2018-03-21T09:26:07.735Z,4.49
2018-03-21T09:27:07.712Z,4.49
2018-03-21T09:28:07.702Z,4.50
2018-03-21T09:29:07.694Z,4.62
2018-03-21T09:30:07.690Z,4.68
2018-03-21T09:31:07.682Z,4.72
2018-03-21T09:32:07.667Z,4.88
2018-03-21T09:33:07.657Z,4.88
2018-03-21T09:34:07.649Z,4.90
2018-03-21T09:35:07.639Z,4.87
2018-03-21T09:36:07.635Z,4.96
2018-03-21T09:37:07.625Z,4.91
2018-03-21T09:38:07.613Z,4.91
2018-03-21T09:39:07.655Z,5.04
2018-03-21T09:40:07.596Z,5.01
2018-03-21T09:41:07.586Z,5.12
2018-03-21T09:42:07.579Z,5.17
2018-03-21T09:43:07.575Z,5.11
2018-03-21T09:44:07.560Z,5.09
2018-03-21T09:45:07.550Z,5.15
2018-03-21T09:46:07.542Z,5.04
2018-03-21T09:47:07.532Z,5.05
2018-03-21T09:48:07.527Z,5.17
2018-03-21T09:49:07.519Z,5.02
2018-03-21T09:50:07.510Z,5.08
2018-03-21T09:51:07.498Z,4.94
2018-03-21T09:52:07.489Z,5.06
2018-03-21T09:53:07.480Z,5.08
2018-03-21T09:54:07.470Z,5.01
2018-03-21T09:55:07.462Z,5.02
2018-03-21T09:56:07.456Z,4.97
2018-03-21T09:57:07.449Z,5.09
2018-03-21T09:58:07.438Z,5.14
2018-03-21T09:59:07.426Z,5.20
2018-03-21T10:00:07.420Z,5.23
2018-03-21T10:01:07.416Z,5.19
2018-03-21T10:02:07.400Z,5.24
2018-03-21T10:03:07.390Z,5.22
2018-03-21T10:04:07.382Z,5.30
2018-03-21T10:05:07.374Z,5.35
2018-03-21T10:06:07.364Z,5.45
2018-03-21T10:07:07.355Z,5.55
2018-03-21T10:08:07.355Z,5.58
2018-03-21T10:09:07.339Z,5.60
2018-03-21T10:10:07.332Z,5.59
2018-03-21T10:11:07.327Z,5.70
2018-03-21T10:12:07.311Z,5.67
2018-03-21T10:13:07.302Z,5.66
2018-03-21T10:14:07.299Z,5.63
2018-03-21T10:15:07.288Z,5.65
2018-03-21T10:16:07.275Z,5.66
2018-03-21T10:17:07.267Z,5.74
2018-03-21T10:18:07.259Z,5.75
2018-03-21T10:19:07.251Z,5.88
2018-03-21T10:20:07.241Z,5.78
2018-03-21T10:21:07.233Z,5.92
2018-03-21T10:22:07.228Z,5.90
2018-03-21T10:23:07.216Z,5.96
2018-03-21T10:24:07.207Z,5.96
2018-03-21T10:25:07.200Z,6.05
2018-03-21T10:26:07.190Z,6.08
2018-03-21T10:27:07.181Z,6.13
2018-03-21T10:28:07.177Z,6.03
2018-03-21T10:29:07.168Z,6.11
2018-03-21T10:30:07.157Z,6.08
2018-03-21T10:31:07.148Z,5.75
2018-03-21T10:32:07.144Z,5.67
2018-03-21T10:33:07.136Z,5.73
2018-03-21T10:34:07.123Z,5.70
2018-03-21T10:35:07.116Z,5.78
2018-03-21T10:36:07.106Z,5.78
2018-03-21T10:37:07.100Z,5.90
2018-03-21T10:38:07.140Z,5.96
2018-03-21T10:39:07.083Z,6.08
2018-03-21T10:40:07.074Z,6.11
2018-03-21T10:41:07.067Z,6.11
2018-03-21T10:42:07.062Z,6.20
2018-03-21T10:43:07.052Z,6.21
2018-03-21T10:44:07.041Z,6.32
2018-03-21T10:45:07.037Z,6.28
2018-03-21T10:46:07.031Z,6.38
2018-03-21T10:47:07.021Z,6.30
2018-03-21T10:48:07.008Z,6.43
2018-03-21T10:49:07.000Z,6.33
2018-03-21T10:50:06.993Z,6.08
2018-03-21T10:51:06.985Z,5.90
2018-03-21T10:52:06.977Z,5.87
2018-03-21T10:53:06.968Z,5.93
2018-03-21T10:54:06.975Z,6.08
2018-03-21T10:55:06.952Z,6.13
2018-03-21T10:56:06.944Z,6.11
2018-03-21T10:57:06.937Z,6.32
2018-03-21T10:58:06.928Z,6.38
2018-03-21T10:59:06.931Z,6.45
2018-03-21T11:00:06.917Z,6.45
2018-03-21T11:01:06.909Z,6.53
2018-03-21T11:02:06.962Z,6.54
2018-03-21T11:03:06.888Z,6.63
2018-03-21T11:04:06.884Z,6.69
2018-03-21T11:05:06.877Z,6.60
2018-03-21T11:06:06.870Z,6.68
2018-03-21T11:07:06.858Z,6.79
2018-03-21T11:08:06.894Z,6.57
2018-03-21T11:09:06.844Z,6.60
2018-03-21T11:10:06.840Z,6.71
2018-03-21T11:11:06.827Z,6.71
2018-03-21T11:12:06.819Z,6.68
2018-03-21T11:13:06.812Z,6.69
2018-03-21T11:14:06.810Z,6.87
2018-03-21T11:15:06.801Z,7.00
2018-03-21T11:16:06.789Z,6.89
2018-03-21T11:17:06.781Z,6.93
2018-03-21T11:18:06.779Z,6.96
2018-03-21T11:19:06.770Z,6.87
2018-03-21T11:20:06.759Z,6.89
2018-03-21T11:21:06.752Z,6.97
2018-03-21T11:22:06.746Z,7.07
2018-03-21T11:23:06.743Z,7.11
2018-03-21T11:24:06.730Z,7.08
2018-03-21T11:25:06.723Z,6.96
2018-03-21T11:26:06.717Z,6.72
2018-03-21T11:27:06.708Z,6.81
2018-03-21T11:28:06.702Z,6.94
2018-03-21T11:29:06.695Z,6.94
2018-03-21T11:30:06.693Z,6.97
2018-03-21T11:31:06.680Z,6.93
2018-03-21T11:32:06.675Z,6.94
2018-03-21T11:33:06.670Z,7.08
2018-03-21T11:34:06.689Z,7.12
2018-03-21T11:35:06.650Z,7.23
2018-03-21T11:36:06.649Z,7.39
2018-03-21T11:37:06.642Z,7.26
2018-03-21T11:38:06.631Z,7.19
2018-03-21T11:39:06.625Z,7.21
2018-03-21T11:40:06.616Z,7.32
2018-03-21T11:41:06.611Z,7.39
2018-03-21T11:42:06.639Z,7.41
2018-03-21T11:43:06.596Z,7.42
2018-03-21T11:44:06.590Z,7.51
2018-03-21T11:45:06.582Z,7.66
2018-03-21T11:46:06.580Z,7.54
2018-03-21T11:47:06.574Z,7.66
2018-03-21T11:48:06.562Z,7.62
2018-03-21T11:49:06.557Z,7.74
2018-03-21T11:50:06.554Z,7.82
2018-03-21T11:51:06.598Z,7.99
2018-03-21T11:52:06.536Z,8.21
2018-03-21T11:53:06.530Z,8.29
2018-03-21T11:54:06.525Z,8.52
2018-03-21T11:55:06.517Z,8.57
2018-03-21T11:56:06.511Z,8.75
2018-03-21T11:57:06.505Z,8.85
2018-03-21T11:58:06.508Z,8.82
2018-03-21T11:59:06.496Z,8.89
2018-03-21T12:00:06.490Z,9.01
2018-03-21T12:01:06.482Z,8.97
2018-03-21T12:02:06.477Z,8.32
2018-03-21T12:03:06.472Z,8.29
2018-03-21T12:04:06.465Z,8.46
2018-03-21T12:05:06.460Z,8.20
2018-03-21T12:06:06.456Z,8.09
2018-03-21T12:07:06.448Z,7.63
2018-03-21T12:08:06.444Z,7.48
2018-03-21T12:09:06.439Z,7.30
2018-03-21T12:10:06.438Z,6.91
2018-03-21T12:11:06.432Z,7.07
2018-03-21T12:12:06.423Z,7.11
2018-03-21T12:13:06.420Z,7.16
2018-03-21T12:14:06.414Z,7.08
2018-03-21T12:15:06.411Z,7.14
2018-03-21T12:16:06.408Z,7.19
2018-03-21T12:17:06.403Z,7.41
2018-03-21T12:18:06.401Z,7.62
2018-03-21T12:19:06.388Z,7.69
2018-03-21T12:20:06.385Z,7.81
2018-03-21T12:21:06.379Z,8.02
2018-03-21T12:22:06.374Z,8.10
2018-03-21T12:23:06.373Z,8.21
2018-03-21T12:24:06.365Z,8.37
2018-03-21T12:25:06.359Z,8.39
2018-03-21T12:26:06.354Z,8.57
2018-03-21T12:27:06.351Z,8.68
2018-03-21T12:28:06.646Z,8.89
2018-03-21T12:29:06.343Z,8.76
2018-03-21T12:30:06.337Z,8.85
2018-03-21T12:31:06.333Z,8.86
2018-03-21T12:32:06.324Z,8.96
2018-03-21T12:33:06.318Z,9.12
2018-03-21T12:34:06.313Z,9.26
2018-03-21T12:35:06.309Z,9.42
2018-03-21T12:36:06.304Z,9.48
2018-03-21T12:37:06.299Z,9.59
2018-03-21T12:38:06.294Z,9.62
2018-03-21T12:39:06.289Z,9.75
2018-03-21T12:40:06.282Z,9.89
2018-03-21T12:41:06.278Z,9.91
2018-03-21T12:42:06.283Z,9.73
2018-03-21T12:43:06.272Z,9.75
2018-03-21T12:44:06.264Z,9.59
2018-03-21T12:45:06.259Z,9.55
2018-03-21T12:46:06.254Z,9.44
2018-03-21T12:47:06.251Z,8.98
2018-03-21T12:48:06.249Z,8.89
2018-03-21T12:49:06.244Z,8.50
2018-03-21T12:50:06.256Z,7.88
2018-03-21T12:51:06.236Z,7.62
2018-03-21T12:52:06.227Z,8.03
2018-03-21T12:53:06.223Z,8.18
2018-03-21T12:54:06.218Z,8.34
2018-03-21T12:55:06.212Z,8.63
2018-03-21T12:56:06.291Z,8.76
2018-03-21T12:57:06.214Z,8.91
2018-03-21T12:58:06.198Z,8.88
2018-03-21T12:59:06.193Z,9.12
2018-03-21T13:00:06.193Z,9.13
2018-03-21T13:01:06.190Z,9.44
2018-03-21T13:02:06.180Z,9.50
2018-03-21T13:03:06.176Z,9.58
2018-03-21T13:04:06.171Z,9.75
2018-03-21T13:05:06.168Z,9.95
2018-03-21T13:06:06.164Z,10.18
2018-03-21T13:07:06.159Z,10.20
2018-03-21T13:08:06.162Z,10.29
2018-03-21T13:09:06.155Z,9.96